North Stratford, NH (03590)

5:35 AM EST on February 08, 2016 (GMT -0500)
Island Pond | | Change Station
CLOSE
Current Station
Personal Weather Station
Location: Brighton, VT
Elevation: 1204 ft
Nearby Weather Stations
Active Advisory: Winter Weather Advisory

Elev 1204 ft 44.81 °N, 71.86 °W | Updated 20 seconds ago

Clear
Clear
12.2 °F
Feels Like 12 °F
N
0.0
Wind Variable Wind from West
Gusts 0.0 mph

Today
High -- | Low -- °F
--% Chance of Precip.
Yesterday
High -- | Low -- °F
Precip. -- in
Pressure 29.94 in
Visibility 10.0 miles
Clouds Clear
Windchill 12 °F
Dew Point 10 °F
Humidity 91%
Rainfall 0.00 in
Snow Depth Not available.
6:57 AM 5:04 PM
Waning Crescent, 0% visible
METAR KCDA 081015Z AUTO 01008KT 10SM CLR M06/M11 A2994 RMK AO2 T10571107
Pressure 29.94 in
Visibility 10.0 miles
Clouds Clear
Windchill 12 °F
Dew Point 10 °F
Humidity 91%
Rainfall 0.00 in
Snow Depth Not available.
6:57 AM 5:04 PM
Waning Crescent, 0% visible
METAR KCDA 081015Z AUTO 01008KT 10SM CLR M06/M11 A2994 RMK AO2 T10571107

10-Day Weather Forecast

Almanac

Astronomy

Feb. 08, 2016 Rise Set
Actual Time
Civil Twilight
Nautical Twilight
Astronomical Twilight
Moon
Length of Visible Light
Length of Day
Tomorrow will be .
, % of the Moon is Illuminated

Today's Extremes

State Highs State Lows

Community

WunderPhotos

Upload Photos

1,891,420 photos uploaded!

WunderBlog® & News

Nearby

Air Quality

  Air Quality AQ Index Pollutant
Not available.

Snow Depth

Station Depth Elevation

Earthquake Activity

City Distance Mag. Time & Date
Minimum magnitude displayed is 2.5.

Coastal Water Temperatures

Place Temperature

Stations

Nearby Weather Stations

Station Location Temp. Windchill Dew Point Humidity Wind Precip. Elev Updated Type
                   

Watches & Warnings

Winter Weather Advisory
Issued: 3:39 AM EST Feb. 8, 2016 – National Weather Service

... Winter Weather Advisory remains in effect from noon today to
noon EST Tuesday...

* hazard types... snow.

* Accumulations... snow accumulation of 3 to 6 inches.

* Timing... snow begins around midday today and continues into
Tuesday.

* Impacts... roads will become snow covered and slippery. Strong
winds will cause blowing and drifting snow and could lead to
low visibility in spots.

* Winds... northeast 10 to 15 mph with gusts up to 25 mph.

* Temperatures... 11 to 21.

Precautionary/preparedness actions...

A Winter Weather Advisory for snow means that periods of snow
will cause primarily travel difficulties. Be prepared for snow
covered roads and limited visibilities... and use caution while
driving.



Schwibs